Time;durP1;ratioP1;P1;durP2;ratioP2;P2;SDS_P1;SDS_P2;PMS_P1;PMS_P2;Temp;Humidity;BMP_temperature;BMP_pressure;BME280_temperature;BME280_humidity;BME280_pressure;Samples;Min_cycle;Max_cycle;Signal;HPM_P1;HPM_P2
2023/03/19 00:02:17;;;;;;;12.57;10.00;;;;;;;;;;4966913;28;20072;-89
2023/03/19 00:04:43;;;;;;;13.80;9.52;;;;;;;;;;4983488;28;20439;-89
2023/03/19 00:07:10;;;;;;;17.45;12.85;;;;;;;;;;4962237;28;20128;-89
2023/03/19 00:09:36;;;;;;;14.75;10.57;;;;;;;;;;4962476;28;20062;-89
2023/03/19 00:12:02;;;;;;;16.77;11.93;;;;;;;;;;4967711;28;20053;-90
2023/03/19 00:14:28;;;;;;;14.90;12.50;;;;;;;;;;4954393;28;20043;-90
2023/03/19 00:16:54;;;;;;;17.92;12.57;;;;;;;;;;4968478;28;20034;-89
2023/03/19 00:19:20;;;;;;;15.15;12.05;;;;;;;;;;4967201;28;20045;-90
2023/03/19 00:21:46;;;;;;;18.30;13.38;;;;;;;;;;4954992;28;20054;-90
2023/03/19 00:24:12;;;;;;;19.02;13.43;;;;;;;;;;4960723;28;20049;-90
2023/03/19 00:26:38;;;;;;;17.30;13.60;;;;;;;;;;4978169;28;20124;-90
2023/03/19 00:29:04;;;;;;;18.52;12.32;;;;;;;;;;4958488;28;20117;-89
2023/03/19 00:31:31;;;;;;;17.80;12.30;;;;;;;;;;4966833;28;20077;-89
2023/03/19 00:33:57;;;;;;;19.65;12.80;;;;;;;;;;4985496;28;20273;-89
2023/03/19 00:36:24;;;;;;;15.65;12.50;;;;;;;;;;4957883;28;20088;-89
2023/03/19 00:38:50;;;;;;;18.48;13.10;;;;;;;;;;4982388;28;20053;-89
2023/03/19 00:41:17;;;;;;;16.92;12.70;;;;;;;;;;4964096;28;20039;-89
2023/03/19 00:43:44;;;;;;;15.40;12.27;;;;;;;;;;4977320;28;20047;-89
2023/03/19 00:46:10;;;;;;;14.20;11.15;;;;;;;;;;4958446;28;20042;-89
2023/03/19 00:48:36;;;;;;;14.60;11.02;;;;;;;;;;4950135;28;20047;-89
2023/03/19 00:51:07;;;;;;;13.15;10.52;;;11.00;99.90;;;;;;4980509;28;20046;-90
2023/03/19 00:53:37;;;;;;;12.20;9.98;;;10.80;99.90;;;;;;4950434;28;20077;-90
2023/03/19 00:56:04;;;;;;;11.70;9.30;;;;;;;;;;4949217;28;20470;-89
2023/03/19 00:58:30;;;;;;;13.98;8.35;;;;;;;;;;4961963;28;20051;-88
2023/03/19 01:00:56;;;;;;;11.75;8.35;;;;;;;;;;4958497;28;20070;-89
2023/03/19 01:03:22;;;;;;;13.82;6.95;;;;;;;;;;4963781;28;20074;-90
2023/03/19 01:05:48;;;;;;;14.15;8.60;;;;;;;;;;4961947;28;20046;-89
2023/03/19 01:08:15;;;;;;;10.55;7.40;;;;;;;;;;4962698;28;20181;-89
2023/03/19 01:10:41;;;;;;;9.50;6.82;;;;;;;;;;4962610;28;20042;-90
2023/03/19 01:13:07;;;;;;;9.00;7.15;;;;;;;;;;4959091;28;20522;-90
2023/03/19 01:15:37;;;;;;;10.93;7.22;;;10.90;99.90;;;;;;4956850;28;20042;-89
2023/03/19 01:18:04;;;;;;;9.90;7.78;;;;;;;;;;4951504;28;20072;-89
2023/03/19 01:20:30;;;;;;;12.68;7.85;;;;;;;;;;4965399;28;20335;-89
2023/03/19 01:22:56;;;;;;;12.85;7.30;;;;;;;;;;4963877;28;20129;-90
2023/03/19 01:25:22;;;;;;;8.48;7.45;;;;;;;;;;4964854;28;20118;-89
2023/03/19 01:27:48;;;;;;;11.10;7.25;;;;;;;;;;4952934;28;20050;-89
2023/03/19 01:30:14;;;;;;;10.25;7.18;;;;;;;;;;4948251;28;20042;-89
2023/03/19 01:32:40;;;;;;;9.73;7.68;;;;;;;;;;4944899;28;20046;-89
2023/03/19 01:35:06;;;;;;;9.10;7.82;;;;;;;;;;4966848;28;20112;-89
2023/03/19 01:37:32;;;;;;;10.40;7.53;;;;;;;;;;4956298;28;20077;-89
2023/03/19 01:39:58;;;;;;;15.48;8.27;;;;;;;;;;4961007;28;20584;-89
2023/03/19 01:42:24;;;;;;;10.93;8.63;;;;;;;;;;4957891;28;20053;-89
2023/03/19 01:44:50;;;;;;;11.07;8.07;;;;;;;;;;4948966;28;20799;-89
2023/03/19 01:47:19;;;;;;;14.48;9.00;;;;;;;;;;4966656;28;20390;-89
2023/03/19 01:49:52;;;;;;;12.65;9.23;;;10.80;99.90;;;;;;4959340;28;20486;-89
2023/03/19 01:52:19;;;;;;;10.77;8.45;;;;;;;;;;4968226;28;20042;-89
2023/03/19 01:54:45;;;;;;;12.68;9.13;;;;;;;;;;4971291;28;20125;-89
2023/03/19 01:57:13;;;;;;;9.90;7.57;;;10.80;99.90;;;;;;4969591;28;20046;-89
2023/03/19 01:59:44;;;;;;;13.25;7.43;;;;;;;;;;4952394;28;20042;-90
2023/03/19 02:02:34;;;;;;;11.80;7.13;;;;;;;;;;4964819;28;20164;-90
2023/03/19 02:05:06;;;;;;;8.85;5.97;;;;;;;;;;4956118;28;20077;-89
2023/03/19 02:07:34;;;;;;;9.18;6.07;;;10.90;99.90;;;;;;4963355;28;20050;-89
2023/03/19 02:10:01;;;;;;;6.30;4.88;;;;;;;;;;4959779;28;20074;-89
2023/03/19 02:12:27;;;;;;;6.82;5.40;;;;;;;;;;4966819;28;20057;-90
2023/03/19 02:14:53;;;;;;;7.95;6.10;;;;;;;;;;4972346;28;20444;-90
2023/03/19 02:17:20;;;;;;;7.80;4.82;;;;;;;;;;4962503;28;20683;-90
2023/03/19 02:20:05;;;;;;;5.20;4.55;;;;;;;;;;4963419;28;20040;-89
2023/03/19 02:22:31;;;;;;;6.53;4.28;;;;;;;;;;4948716;28;20486;-89
2023/03/19 02:25:15;;;;;;;7.28;4.78;;;10.80;99.90;;;;;;4963964;28;20459;-90
2023/03/19 02:27:41;;;;;;;6.05;3.90;;;;;;;;;;4961173;28;20038;-90
2023/03/19 02:30:25;;;;;;;5.80;4.65;;;;;;;;;;4958606;28;20519;-90
2023/03/19 02:32:51;;;;;;;5.20;4.13;;;;;;;;;;4950718;28;20050;-89
2023/03/19 02:35:17;;;;;;;4.72;3.63;;;;;;;;;;4963417;28;20093;-89
2023/03/19 02:37:43;;;;;;;5.45;3.97;;;;;;;;;;4961691;28;20046;-90
2023/03/19 02:40:15;;;;;;;5.65;3.83;;;;;;;;;;4960844;28;20497;-89
2023/03/19 02:42:41;;;;;;;5.75;3.95;;;;;;;;;;4960247;28;20042;-88
2023/03/19 02:45:07;;;;;;;4.63;4.18;;;;;;;;;;4946161;28;20386;-89
2023/03/19 02:47:34;;;;;;;5.22;3.80;;;;;;;;;;4966345;28;20039;-90
2023/03/19 02:50:00;;;;;;;4.30;3.90;;;;;;;;;;4965851;28;20046;-90
2023/03/19 02:52:26;;;;;;;5.38;3.80;;;;;;;;;;4965166;28;20039;-89
2023/03/19 02:54:52;;;;;;;6.22;3.83;;;;;;;;;;4967221;28;20485;-89
2023/03/19 02:57:18;;;;;;;8.77;4.40;;;;;;;;;;4963746;28;20551;-88
2023/03/19 02:59:44;;;;;;;6.15;3.85;;;;;;;;;;4959925;28;20046;-89
2023/03/19 03:02:10;;;;;;;4.50;3.92;;;;;;;;;;4950506;28;20065;-89
2023/03/19 03:04:36;;;;;;;4.28;3.72;;;;;;;;;;4947685;28;20078;-89
2023/03/19 03:07:03;;;;;;;5.25;3.95;;;10.90;99.90;;;;;;4959266;28;20089;-90
2023/03/19 03:09:30;;;;;;;5.40;3.80;;;;;;;;;;4960658;28;20431;-90
2023/03/19 03:11:56;;;;;;;4.65;3.50;;;;;;;;;;4966835;28;20046;-89
2023/03/19 03:14:22;;;;;;;3.90;3.50;;;;;;;;;;4969536;28;20492;-89
2023/03/19 03:16:48;;;;;;;4.03;3.58;;;;;;;;;;4964519;28;20044;-89
2023/03/19 03:19:14;;;;;;;6.72;3.92;;;;;;;;;;4962572;28;20035;-89
2023/03/19 03:21:41;;;;;;;7.13;3.92;;;;;;;;;;4964788;28;20187;-89
2023/03/19 03:24:08;;;;;;;7.88;4.28;;;;;;;;;;4963735;28;20050;-89
2023/03/19 03:26:37;;;;;;;5.60;4.30;;;;;;;;;;4969290;28;20046;-89
2023/03/19 03:29:04;;;;;;;7.68;4.35;;;11.00;99.90;;;;;;4952599;28;20390;-89
2023/03/19 03:31:30;;;;;;;5.60;4.40;;;;;;;;;;4969678;28;20042;-89
2023/03/19 03:33:56;;;;;;;4.03;3.58;;;;;;;;;;4957239;28;20500;-89
2023/03/19 03:36:22;;;;;;;5.57;4.07;;;;;;;;;;4964749;28;20051;-89
2023/03/19 03:38:48;;;;;;;6.70;4.60;;;;;;;;;;4949548;28;20077;-89
2023/03/19 03:41:14;;;;;;;5.93;4.60;;;;;;;;;;4967134;28;20042;-89
2023/03/19 03:43:40;;;;;;;5.60;4.90;;;;;;;;;;4965229;28;20053;-90
2023/03/19 03:46:07;;;;;;;5.18;4.60;;;;;;;;;;4969875;28;20407;-89
2023/03/19 03:48:33;;;;;;;5.55;4.60;;;;;;;;;;4954729;28;20042;-89
2023/03/19 03:50:59;;;;;;;7.25;4.82;;;;;;;;;;4946338;28;20038;-89
2023/03/19 03:53:26;;;;;;;7.93;5.50;;;;;;;;;;4964719;28;20459;-90
2023/03/19 03:55:52;;;;;;;5.88;5.20;;;;;;;;;;4956322;28;20038;-88
2023/03/19 03:58:18;;;;;;;7.63;5.53;;;;;;;;;;4939595;28;20062;-88
2023/03/19 04:00:45;;;;;;;8.07;5.05;;;;;;;;;;4966828;28;20043;-89
2023/03/19 04:03:11;;;;;;;8.23;5.70;;;;;;;;;;4970290;28;20049;-89
2023/03/19 04:05:37;;;;;;;7.65;6.13;;;;;;;;;;4961804;28;20049;-90
2023/03/19 04:08:04;;;;;;;8.50;6.38;;;;;;;;;;4944396;28;20042;-89
2023/03/19 04:10:30;;;;;;;9.40;6.38;;;;;;;;;;4961513;28;20043;-89
2023/03/19 04:12:56;;;;;;;7.97;6.03;;;;;;;;;;4964378;28;20039;-90
2023/03/19 04:15:22;;;;;;;7.93;5.75;;;;;;;;;;4963449;28;20041;-90
2023/03/19 04:17:49;;;;;;;8.77;6.88;;;;;;;;;;4959310;28;20047;-89
2023/03/19 04:20:17;;;;;;;10.90;6.45;;;;;;;;;;4963796;28;20038;-89
2023/03/19 04:22:43;;;;;;;8.52;5.88;;;;;;;;;;4960823;28;20054;-89
2023/03/19 04:25:09;;;;;;;10.40;7.15;;;;;;;;;;4960401;28;20665;-89
2023/03/19 04:27:35;;;;;;;11.50;7.80;;;;;;;;;;4962323;28;20269;-89
2023/03/19 04:30:01;;;;;;;9.55;6.63;;;;;;;;;;4965385;28;20084;-89
2023/03/19 04:32:27;;;;;;;8.43;6.47;;;;;;;;;;4962863;28;20049;-89
2023/03/19 04:34:53;;;;;;;12.18;7.65;;;;;;;;;;4945720;28;20050;-89
2023/03/19 04:37:19;;;;;;;9.65;7.78;;;;;;;;;;4962197;28;20476;-88
2023/03/19 04:39:45;;;;;;;11.70;8.15;;;;;;;;;;4957938;28;20385;-90
2023/03/19 04:42:11;;;;;;;8.98;6.53;;;;;;;;;;4961840;28;20049;-89
2023/03/19 04:44:37;;;;;;;11.80;6.90;;;;;;;;;;4959144;28;20050;-89
2023/03/19 04:47:04;;;;;;;11.05;8.18;;;;;;;;;;4953922;28;20066;-88
2023/03/19 04:49:30;;;;;;;11.75;7.93;;;;;;;;;;4956738;28;20050;-89
2023/03/19 04:51:56;;;;;;;10.27;8.15;;;;;;;;;;4945646;28;20043;-90
2023/03/19 04:54:23;;;;;;;9.35;7.88;;;;;;;;;;4954469;28;20047;-88
2023/03/19 04:56:49;;;;;;;12.25;7.53;;;;;;;;;;4954946;28;20042;-89
2023/03/19 04:59:16;;;;;;;9.75;8.25;;;;;;;;;;4937894;28;20054;-89
2023/03/19 05:01:42;;;;;;;10.68;7.60;;;;;;;;;;4950463;28;20050;-88
2023/03/19 05:04:08;;;;;;;10.27;7.97;;;;;;;;;;4957241;28;20049;-89
2023/03/19 05:06:35;;;;;;;12.07;8.23;;;;;;;;;;4940215;28;20085;-89
2023/03/19 05:09:01;;;;;;;12.20;8.43;;;;;;;;;;4941290;28;20042;-89
2023/03/19 05:11:27;;;;;;;11.05;7.68;;;;;;;;;;4963806;28;20038;-89
2023/03/19 05:13:53;;;;;;;10.25;8.27;;;;;;;;;;4961732;28;20373;-89
2023/03/19 05:16:19;;;;;;;11.60;8.20;;;;;;;;;;4958866;28;20120;-89
2023/03/19 05:18:45;;;;;;;11.65;8.52;;;;;;;;;;4953725;28;20039;-89
2023/03/19 05:21:12;;;;;;;11.68;8.73;;;;;;;;;;4950488;28;20046;-89
2023/03/19 05:23:39;;;;;;;11.70;9.10;;;;;;;;;;4946481;28;20050;-88
2023/03/19 05:26:05;;;;;;;11.32;8.10;;;;;;;;;;4955242;28;20504;-89
2023/03/19 05:28:32;;;;;;;12.13;8.38;;;;;;;;;;4960605;28;20046;-89
2023/03/19 05:30:58;;;;;;;13.38;9.60;;;;;;;;;;4960180;28;20057;-90
2023/03/19 05:33:24;;;;;;;13.90;8.70;;;;;;;;;;4966565;28;20054;-88
2023/03/19 05:35:50;;;;;;;13.68;9.45;;;;;;;;;;4961723;28;20042;-89
2023/03/19 05:38:16;;;;;;;14.02;9.52;;;;;;;;;;4936499;28;20051;-89
2023/03/19 05:40:42;;;;;;;13.15;8.88;;;;;;;;;;4958492;28;20045;-89
2023/03/19 05:43:09;;;;;;;14.15;10.05;;;;;;;;;;4965593;28;20617;-90
2023/03/19 05:45:35;;;;;;;13.68;8.52;;;;;;;;;;4955844;28;20408;-88
2023/03/19 05:48:02;;;;;;;13.43;8.80;;;;;;;;;;4946154;28;20046;-89
2023/03/19 05:50:28;;;;;;;12.40;8.98;;;;;;;;;;4962137;28;20081;-89
2023/03/19 05:52:54;;;;;;;12.85;8.68;;;;;;;;;;4964128;28;20078;-89
2023/03/19 05:55:20;;;;;;;11.05;8.80;;;;;;;;;;4964639;28;20140;-89
2023/03/19 05:57:46;;;;;;;12.05;8.85;;;;;;;;;;4944649;28;20500;-89
2023/03/19 06:00:12;;;;;;;12.75;9.13;;;;;;;;;;4955812;28;20042;-89
2023/03/19 06:02:38;;;;;;;12.45;8.80;;;;;;;;;;4949594;28;20053;-89
2023/03/19 06:05:05;;;;;;;13.45;9.45;;;;;;;;;;4957208;28;20042;-88
2023/03/19 06:07:31;;;;;;;14.15;8.90;;;;;;;;;;4959975;28;20069;-89
2023/03/19 06:09:57;;;;;;;12.57;7.95;;;;;;;;;;4948570;28;20168;-90
2023/03/19 06:12:23;;;;;;;11.65;8.27;;;;;;;;;;4957574;28;20047;-89
2023/03/19 06:14:49;;;;;;;14.30;8.85;;;;;;;;;;4943991;28;20046;-89
2023/03/19 06:17:16;;;;;;;13.27;8.75;;;;;;;;;;4959834;28;20051;-89
2023/03/19 06:19:42;;;;;;;12.77;8.77;;;;;;;;;;4962085;28;20082;-89
2023/03/19 06:22:08;;;;;;;11.90;8.77;;;;;;;;;;4961664;28;20081;-89
2023/03/19 06:24:34;;;;;;;14.45;9.30;;;;;;;;;;4966365;28;20069;-89
2023/03/19 06:27:00;;;;;;;14.10;9.15;;;;;;;;;;4958404;28;20049;-89
2023/03/19 06:29:26;;;;;;;13.38;8.40;;;;;;;;;;4960498;28;20039;-89
2023/03/19 06:31:52;;;;;;;11.45;8.60;;;;;;;;;;4968038;28;20049;-88
2023/03/19 06:34:18;;;;;;;11.95;8.40;;;;;;;;;;4958635;28;20058;-89
2023/03/19 06:36:44;;;;;;;12.68;8.35;;;;;;;;;;4960971;28;20082;-89
2023/03/19 06:39:10;;;;;;;12.05;9.40;;;;;;;;;;4953266;28;20043;-89
2023/03/19 06:41:36;;;;;;;10.73;7.00;;;;;;;;;;4963343;28;20531;-89
2023/03/19 06:44:03;;;;;;;9.07;6.68;;;;;;;;;;4967586;28;20492;-88
2023/03/19 06:46:29;;;;;;;9.75;7.35;;;;;;;;;;4965051;28;20057;-89
2023/03/19 06:48:55;;;;;;;11.98;7.50;;;;;;;;;;4948658;28;20053;-88
2023/03/19 06:51:21;;;;;;;8.32;6.85;;;;;;;;;;4962608;28;20046;-89
2023/03/19 06:53:47;;;;;;;10.27;7.00;;;;;;;;;;4961843;28;20038;-89
2023/03/19 06:56:13;;;;;;;9.45;7.13;;;;;;;;;;4965409;28;20084;-89
2023/03/19 06:58:39;;;;;;;9.18;6.43;;;;;;;;;;4968488;28;20093;-88
2023/03/19 07:01:05;;;;;;;10.70;7.45;;;;;;;;;;4957392;28;20133;-88
2023/03/19 07:03:31;;;;;;;8.02;6.53;;;;;;;;;;4953628;28;20051;-89
2023/03/19 07:05:57;;;;;;;8.75;6.97;;;;;;;;;;4961125;28;20050;-89
2023/03/19 07:08:28;;;;;;;7.07;5.55;;;;;;;;;;4962949;28;20051;-88
2023/03/19 07:10:54;;;;;;;7.57;6.00;;;;;;;;;;4959866;28;20043;-89
2023/03/19 07:13:21;;;;;;;8.50;5.82;;;;;;;;;;4956939;28;20086;-88
2023/03/19 07:15:47;;;;;;;7.88;5.65;;;;;;;;;;4968147;28;20050;-88
2023/03/19 07:18:13;;;;;;;10.80;6.50;;;;;;;;;;4962312;28;20038;-89
2023/03/19 07:20:39;;;;;;;8.70;6.22;;;;;;;;;;4961353;28;20046;-90
2023/03/19 07:23:05;;;;;;;8.98;6.30;;;;;;;;;;4965699;28;20050;-90
2023/03/19 07:25:31;;;;;;;8.48;5.63;;;;;;;;;;4958382;28;20050;-90
2023/03/19 07:27:57;;;;;;;9.80;5.55;;;;;;;;;;4965293;28;20197;-90
2023/03/19 07:30:23;;;;;;;7.97;6.22;;;;;;;;;;4970994;28;20042;-89
2023/03/19 07:32:49;;;;;;;7.47;5.97;;;;;;;;;;4964538;28;20421;-90
2023/03/19 07:35:15;;;;;;;8.75;6.80;;;;;;;;;;4968693;28;20078;-90
2023/03/19 07:37:41;;;;;;;9.32;6.93;;;;;;;;;;4955537;28;20229;-90
2023/03/19 07:40:08;;;;;;;9.82;7.30;;;15.80;99.90;;;;;;4968613;28;20053;-90
2023/03/19 07:42:35;;;;;;;7.13;5.57;;;;;;;;;;4968712;28;20432;-90
2023/03/19 07:45:02;;;;;;;7.03;5.47;;;16.20;99.90;;;;;;4961181;28;20451;-89
2023/03/19 07:47:28;;;;;;;6.13;5.47;;;;;;;;;;4958137;28;20109;-90
2023/03/19 07:49:54;;;;;;;7.63;5.95;;;;;;;;;;4949603;28;20206;-90
2023/03/19 07:52:20;;;;;;;6.88;6.15;;;;;;;;;;4968533;28;20045;-90
2023/03/19 07:54:47;;;;;;;7.82;5.57;;;;;;;;;;4968951;28;20047;-90
2023/03/19 07:57:14;;;;;;;8.52;6.57;;;;;;;;;;4946372;28;20050;-90
2023/03/19 07:59:40;;;;;;;7.70;5.85;;;;;;;;;;4962071;28;20378;-91
2023/03/19 08:02:06;;;;;;;7.72;6.10;;;17.30;99.90;;;;;;4954337;28;20124;-90
2023/03/19 08:04:32;;;;;;;9.65;6.63;;;;;;;;;;4962802;28;20046;-89
2023/03/19 08:06:58;;;;;;;10.52;6.80;;;;;;;;;;4950039;28;20053;-92
2023/03/19 08:09:23;;;;;;;9.27;6.72;;;15.10;99.90;;;;;;4952112;28;20042;-90
2023/03/19 08:11:49;;;;;;;11.45;7.43;;;;;;;;;;4952867;28;20496;-90
2023/03/19 08:14:21;;;;;;;11.02;6.95;;;;;;;;;;4955959;28;20050;-90
2023/03/19 08:16:47;;;;;;;11.02;7.70;;;;;;;;;;4949639;28;20046;-89
2023/03/19 08:19:13;;;;;;;11.15;7.90;;;;;;;;;;4961953;28;21149;-91
2023/03/19 08:21:39;;;;;;;9.80;7.18;;;;;;;;;;4959391;28;20484;-91
2023/03/19 08:24:05;;;;;;;9.90;7.85;;;;;;;;;;4947483;28;20038;-91
2023/03/19 08:26:31;;;;;;;11.02;8.02;;;;;;;;;;4968988;28;20138;-91
2023/03/19 08:28:58;;;;;;;11.57;8.65;;;;;;;;;;4965877;28;20046;-91
2023/03/19 08:31:24;;;;;;;12.23;9.02;;;;;;;;;;4963864;28;20042;-91
2023/03/19 08:33:50;;;;;;;11.13;8.95;;;;;;;;;;4955600;28;20133;-90
2023/03/19 08:36:16;;;;;;;13.05;9.02;;;;;;;;;;4951718;28;20101;-92
2023/03/19 08:38:42;;;;;;;10.45;9.25;;;;;;;;;;4954160;28;20092;-91
2023/03/19 08:41:08;;;;;;;10.35;8.60;;;;;;;;;;4972746;28;20146;-91
2023/03/19 08:43:35;;;;;;;11.15;8.63;;;;;;;;;;4949867;28;20101;-91
2023/03/19 08:46:02;;;;;;;10.63;8.57;;;;;;;;;;4968380;28;20088;-90
2023/03/19 08:48:28;;;;;;;13.05;9.40;;;;;;;;;;4946602;28;20073;-90
2023/03/19 08:50:55;;;;;;;11.43;8.60;;;12.80;99.90;;;;;;4952015;28;20045;-91
2023/03/19 08:53:22;;;;;;;11.40;9.13;;;;;;;;;;4953670;28;20042;-91
2023/03/19 08:55:52;;;;;;;12.90;9.35;;;;;;;;;;4965996;28;20042;-91
2023/03/19 08:58:18;;;;;;;13.52;9.27;;;;;;;;;;4962487;28;20034;-91
2023/03/19 09:00:45;;;;;;;13.48;9.13;;;;;;;;;;4950827;28;20061;-91
2023/03/19 09:03:11;;;;;;;12.75;9.10;;;;;;;;;;4945913;28;20038;-90
2023/03/19 09:05:36;;;;;;;11.77;8.88;;;;;;;;;;4943267;28;20507;-91
2023/03/19 09:08:02;;;;;;;11.35;8.27;;;;;;;;;;4962674;28;20047;-91
2023/03/19 09:10:29;;;;;;;14.18;10.57;;;;;;;;;;4950280;28;20121;-91
2023/03/19 09:12:55;;;;;;;11.80;8.65;;;;;;;;;;4949638;28;20125;-91
2023/03/19 09:15:21;;;;;;;12.77;9.68;;;;;;;;;;4949093;28;20062;-91
2023/03/19 09:17:47;;;;;;;12.45;9.20;;;;;;;;;;4948388;28;20484;-91
2023/03/19 09:20:12;;;;;;;14.38;9.43;;;;;;;;;;4961567;28;20038;-90
2023/03/19 09:22:39;;;;;;;13.63;10.18;;;;;;;;;;4963678;28;20043;-90
2023/03/19 09:25:05;;;;;;;12.57;10.20;;;11.80;99.90;;;;;;4984622;28;20150;-90
2023/03/19 09:27:31;;;;;;;13.23;9.68;;;;;;;;;;4962082;28;20046;-90
2023/03/19 09:29:57;;;;;;;15.05;10.45;;;;;;;;;;4964279;28;20558;-91
2023/03/19 09:32:24;;;;;;;13.70;10.93;;;;;;;;;;4951199;28;20077;-90
2023/03/19 09:34:50;;;;;;;16.15;11.75;;;;;;;;;;4962269;28;20434;-91
2023/03/19 09:37:16;;;;;;;15.68;11.13;;;;;;;;;;4963911;28;20053;-92
2023/03/19 09:39:42;;;;;;;14.57;10.70;;;;;;;;;;4957423;28;20043;-90
2023/03/19 09:42:27;;;;;;;14.68;10.85;;;;;;;;;;4955783;28;20527;-90
2023/03/19 09:44:53;;;;;;;18.50;11.48;;;;;;;;;;4959041;28;20146;-90
2023/03/19 09:47:27;;;;;;;15.63;11.40;;;;;;;;;;4945797;28;20046;-90
2023/03/19 09:49:57;;;;;;;16.70;12.15;;;12.20;99.90;;;;;;4951613;28;20488;-90
2023/03/19 09:52:41;;;;;;;16.35;11.95;;;;;;;;;;4965794;28;20101;-90
2023/03/19 09:55:26;;;;;;;16.42;11.57;;;;;;;;;;4963688;28;20114;-90
2023/03/19 09:57:54;;;;;;;18.25;13.02;;;;;;;;;;4949083;28;20873;-91
2023/03/19 10:00:23;;;;;;;15.48;11.27;;;;;;;;;;4951598;28;20042;-91
2023/03/19 10:03:11;;;;;;;16.35;12.70;;;;;;;;;;4963804;28;20043;-90
2023/03/19 10:05:49;;;;;;;18.10;12.48;;;;;;;;;;4906869;28;20161;-90
2023/03/19 10:08:21;;;;;;;16.02;12.25;;;;;;;;;;4959343;28;20559;-90
2023/03/19 10:10:55;;;;;;;17.45;12.20;;;;;;;;;;4954421;28;20564;-90
2023/03/19 10:13:29;;;;;;;18.60;13.13;;;;;;;;;;4954486;28;20567;-90
2023/03/19 10:15:56;;;;;;;16.83;13.05;;;;;;;;;;4969358;28;20051;-90
2023/03/19 10:18:31;;;;;;;19.42;13.23;;;;;;;;;;4959133;28;20038;-90
2023/03/19 10:21:00;;;;;;;17.90;13.13;;;;;;;;;;4966042;28;20120;-90
2023/03/19 10:23:31;;;;;;;17.20;12.68;;;;;;;;;;4966135;28;20531;-90
2023/03/19 10:25:58;;;;;;;17.80;13.10;;;;;;;;;;4947280;28;20041;-90
2023/03/19 10:28:26;;;;;;;17.90;13.02;;;;;;;;;;4969442;28;20511;-90
2023/03/19 10:30:58;;;;;;;17.75;13.25;;;;;;;;;;4964621;28;20624;-90
2023/03/19 10:33:26;;;;;;;22.17;14.35;;;;;;;;;;4971805;28;20059;-90
2023/03/19 10:35:57;;;;;;;17.92;13.23;;;;;;;;;;4951176;28;20068;-90
2023/03/19 10:38:24;;;;;;;19.45;13.85;;;;;;;;;;4949202;28;20093;-91
2023/03/19 10:41:08;;;;;;;21.40;13.85;;;;;;;;;;4951624;28;20040;-90
2023/03/19 10:43:35;;;;;;;19.02;14.05;;;;;;;;;;4952734;28;20539;-91
2023/03/19 10:46:01;;;;;;;20.17;14.80;;;;;;;;;;4952547;28;20122;-90
2023/03/19 10:48:28;;;;;;;18.13;13.05;;;;;;;;;;4965614;28;20538;-90
2023/03/19 10:50:57;;;;;;;22.92;14.35;;;;;;;;;;4961937;28;20046;-90
2023/03/19 10:53:32;;;;;;;20.98;15.07;;;;;;;;;;4962710;28;20042;-90
2023/03/19 10:56:15;;;;;;;19.08;14.80;;;12.00;99.90;;;;;;4966191;28;20035;-90
2023/03/19 10:58:55;;;;;;;20.45;15.07;;;;;;;;;;4965194;28;20077;-90
2023/03/19 11:01:20;;;;;;;22.98;13.57;;;;;;;;;;4952810;28;20158;-90
2023/03/19 11:03:57;;;;;;;20.00;14.18;;;;;;;;;;4951124;28;20077;-90
2023/03/19 11:06:26;;;;;;;21.48;14.05;;;;;;;;;;4984503;28;20155;-89
2023/03/19 11:08:55;;;;;;;21.10;14.63;;;;;;;;;;4960759;28;20046;-90
2023/03/19 11:11:43;;;;;;;20.70;14.77;;;;;;;;;;4964822;28;20131;-90
2023/03/19 11:14:30;;;;;;;20.27;14.70;;;12.20;99.90;;;;;;4964275;28;20081;-90
2023/03/19 11:17:15;;;;;;;23.17;15.57;;;;;;;;;;4963101;28;20096;-90
2023/03/19 11:19:42;;;;;;;20.38;14.43;;;;;;;;;;4959326;28;20041;-88
2023/03/19 11:22:16;;;;;;;19.50;14.05;;;;;;;;;;4961863;28;20042;-90
2023/03/19 11:24:49;;;;;;;21.27;13.77;;;12.10;99.90;;;;;;4948783;28;20142;-90
2023/03/19 11:27:16;;;;;;;20.55;13.77;;;;;;;;;;4964841;28;20057;-90
2023/03/19 11:29:43;;;;;;;17.50;13.57;;;;;;;;;;4937039;28;20047;-90
2023/03/19 11:32:16;;;;;;;17.73;13.02;;;;;;;;;;4966591;28;20053;-90
2023/03/19 11:34:54;;;;;;;18.77;13.52;;;12.10;99.90;;;;;;4972587;28;20427;-91
2023/03/19 11:37:27;;;;;;;21.80;14.02;;;;;;;;;;4967682;28;20041;-90
2023/03/19 11:40:03;;;;;;;18.88;14.63;;;;;;;;;;4971662;28;20042;-90
2023/03/19 11:43:01;;;;;;;16.95;13.38;;;;;;;;;;4949784;28;20046;-91
2023/03/19 11:45:52;;;;;;;21.60;13.13;;;;;;;;;;4910136;28;20050;-91
2023/03/19 11:48:18;;;;;;;20.85;14.30;;;;;;;;;;4959840;28;20586;-90
2023/03/19 11:51:02;;;;;;;19.25;13.18;;;;;;;;;;4950554;28;20045;-90
2023/03/19 11:53:45;;;;;;;19.63;13.93;;;;;;;;;;4956696;28;20117;-90
2023/03/19 11:56:42;;;;;;;18.95;13.88;;;12.10;99.90;;;;;;4951638;28;20093;-90
2023/03/19 11:59:08;;;;;;;19.20;13.57;;;;;;;;;;4964219;28;20046;-90
2023/03/19 12:01:52;;;;;;;23.60;16.55;;;;;;;;;;4947403;28;20049;-89
2023/03/19 12:04:28;;;;;;;23.83;14.70;;;;;;;;;;4968235;28;20086;-90
2023/03/19 12:06:54;;;;;;;;;;;;;;;;;;4953967;28;20054;-90
2023/03/19 12:09:29;;;;;;;28.88;17.52;;;;;;;;;;4951452;28;19928;-90
2023/03/19 12:12:07;;;;;;;32.03;18.65;;;;;;;;;;4963113;28;20486;-90
2023/03/19 12:14:55;;;;;;;32.28;19.63;;;;;;;;;;4962580;28;20046;-90
2023/03/19 12:17:37;;;;;;;32.33;19.55;;;;;;;;;;4957715;28;20404;-90
2023/03/19 12:20:09;;;;;;;31.98;19.65;;;;;;;;;;4969417;28;20042;-90
2023/03/19 12:22:39;;;;;;;28.67;17.48;;;;;;;;;;4954673;28;20121;-91
2023/03/19 12:25:26;;;;;;;36.53;19.02;;;;;;;;;;4951206;28;20054;-90
2023/03/19 12:27:58;;;;;;;32.72;19.95;;;;;;;;;;4948804;28;20361;-90
2023/03/19 12:30:43;;;;;;;33.90;19.67;;;;;;;;;;4954179;28;20097;-90
2023/03/19 12:33:09;;;;;;;33.20;20.27;;;;;;;;;;4959792;28;20059;-90
2023/03/19 12:35:39;;;;;;;27.20;17.73;;;;;;;;;;4954897;28;20085;-91
2023/03/19 12:38:12;;;;;;;31.90;18.85;;;;;;;;;;4940770;28;20074;-90
2023/03/19 12:40:41;;;;;;;31.48;19.38;;;;;;;;;;4961990;28;20430;-91
2023/03/19 12:43:17;;;;;;;30.60;19.13;;;;;;;;;;4955924;28;20138;-91
2023/03/19 12:45:51;;;;;;;33.20;19.52;;;;;;;;;;4966869;28;20050;-90
2023/03/19 12:48:22;;;;;;;30.90;19.45;;;;;;;;;;4965573;28;20049;-91
2023/03/19 12:50:50;;;;;;;29.08;17.50;;;;;;;;;;4943570;28;20477;-90
2023/03/19 12:53:28;;;;;;;30.10;18.65;;;;;;;;;;4965914;28;20050;-90
2023/03/19 12:55:57;;;;;;;26.65;17.67;;;;;;;;;;4966243;28;20053;-91
2023/03/19 12:58:30;;;;;;;26.15;16.35;;;;;;;;;;4960233;28;20489;-90
2023/03/19 13:01:06;;;;;;;33.55;19.08;;;;;;;;;;4953817;28;20079;-90
2023/03/19 13:03:52;;;;;;;31.77;18.40;;;;;;;;;;4949772;28;20042;-89
2023/03/19 13:06:21;;;;;;;27.55;18.08;;;;;;;;;;4963669;28;20038;-91
2023/03/19 13:09:02;;;;;;;28.02;18.15;;;12.00;99.90;;;;;;4962208;28;20042;-91
2023/03/19 13:11:37;;;;;;;31.50;19.08;;;;;;;;;;4979721;28;20058;-92
2023/03/19 13:14:09;;;;;;;35.60;21.30;;;;;;;;;;4986455;28;20077;-90
2023/03/19 13:16:55;;;;;;;33.63;20.50;;;11.90;99.90;;;;;;4969243;28;20047;-89
2023/03/19 13:19:40;;;;;;;35.72;21.05;;;;;;;;;;4949715;28;20420;-89
2023/03/19 13:22:11;;;;;;;39.05;22.52;;;;;;;;;;4962476;28;20054;-93
2023/03/19 13:24:42;;;;;;;38.00;20.48;;;12.00;99.90;;;;;;4966834;28;20050;-89
2023/03/19 13:27:12;;;;;;;40.08;22.52;;;;;;;;;;4980573;28;20049;-92
2023/03/19 13:29:51;;;;;;;37.25;21.23;;;;;;;;;;4958851;28;20051;-90
2023/03/19 13:32:30;;;;;;;34.25;19.73;;;;;;;;;;4956081;28;20047;-89
2023/03/19 13:35:28;;;;;;;37.83;22.40;;;;;;;;;;4963664;28;20500;-91
2023/03/19 13:37:59;;;;;;;39.22;21.40;;;11.80;99.90;;;;;;4915053;28;20046;-89
2023/03/19 13:40:42;;;;;;;39.00;21.15;;;;;;;;;;4958741;28;20052;-89
2023/03/19 13:43:27;;;;;;;35.95;21.27;;;;;;;;;;4959173;28;20049;-89
2023/03/19 13:46:04;;;;;;;41.67;20.17;;;;;;;;;;4973418;28;20043;-89
2023/03/19 13:48:46;;;;;;;32.80;18.05;;;;;;;;;;4956696;28;20546;-89
2023/03/19 13:51:12;;;;;;;30.25;17.13;;;;;;;;;;4962817;28;20053;-89
2023/03/19 13:53:41;;;;;;;34.20;20.05;;;;;;;;;;4960603;28;20052;-89
2023/03/19 13:56:15;;;;;;;36.30;18.27;;;;;;;;;;4958044;28;20038;-89
2023/03/19 13:58:48;;;;;;;37.00;18.25;;;11.70;99.90;;;;;;4963290;28;20125;-90
2023/03/19 14:01:26;;;;;;;33.38;15.95;;;;;;;;;;4975628;28;20042;-90
2023/03/19 14:03:54;;;;;;;33.90;17.45;;;;;;;;;;4957016;28;20038;-90
2023/03/19 14:06:40;;;;;;;36.05;17.75;;;;;;;;;;4962817;28;20046;-90
2023/03/19 14:09:30;;;;;;;34.60;16.73;;;;;;;;;;4952768;28;20505;-90
2023/03/19 14:12:08;;;;;;;34.95;17.15;;;;;;;;;;4946830;28;20074;-90
2023/03/19 14:14:38;;;;;;;40.38;16.05;;;;;;;;;;4962511;28;20137;-90
2023/03/19 14:17:04;;;;;;;30.58;14.80;;;;;;;;;;4947240;28;20041;-90
2023/03/19 14:19:32;;;;;;;26.50;14.30;;;;;;;;;;4943044;28;20042;-89
2023/03/19 14:21:58;;;;;;;29.65;14.05;;;;;;;;;;4947832;28;20509;-89
2023/03/19 14:24:30;;;;;;;23.83;12.85;;;;;;;;;;4980965;28;20077;-88
2023/03/19 14:27:01;;;;;;;22.40;12.43;;;;;;;;;;4953260;28;20053;-89
2023/03/19 14:29:28;;;;;;;31.80;15.48;;;11.50;99.90;;;;;;4962416;28;20057;-89
2023/03/19 14:31:56;;;;;;;26.38;13.95;;;;;;;;;;4952894;28;20525;-90